Southtown, Indiana
Current Conditions -  °F | °C
As of 3:54 AM on Saturday 25 Oct 2014 (Local Time) from KFWA Reporting Station
Overcast Overcast  
Wind Chill: 51°   Ceiling: 10000
Heat Index: 51°   Visibility: 10mi
Dew Point: 49°   Wind: 9mph
Humidity: 92%   Direction: 210°SSW
Pressure: 29.95"   Gusts: NA
Location:  41.0028°N, 85.0396°W
Report Text: KFWA 250754Z 21008KT 10SM SCT070 OVC100 11/09 A2995 RMK AO2 SLP143 T01060094
Loading
Personal Weather Stations






























Interactive Weather Map
Tropical Storm Tracking
New forecast layout! Learn more

10-Day Weather Forecast

Advertisements
Track Severe Weather on mobile